Time;durP1;ratioP1;P1;durP2;ratioP2;P2;SDS_P1;SDS_P2;PMS_P1;PMS_P2;Temp;Humidity;BMP_temperature;BMP_pressure;BME280_temperature;BME280_humidity;BME280_pressure;Samples;Min_cycle;Max_cycle;Signal;HPM_P1;HPM_P2
2021/10/29 10:58:01;;;;;;;6.70;6.10;;;12.40;99.90;;;;;;6119369;22;3941951;-90
2021/10/29 11:01:00;;;;;;;6.97;5.78;;;12.60;99.90;;;;;;6286465;22;20823;-89
2021/10/29 11:20:00;;;;;;;5.93;5.35;;;13.10;99.90;;;;;;6265057;22;20236;-85
2021/10/29 11:22:52;;;;;;;8.98;5.22;;;13.10;99.90;;;;;;6285556;22;20595;-88
2021/10/29 11:25:45;;;;;;;6.43;5.03;;;13.70;99.90;;;;;;6285832;22;20132;-87
2021/10/29 11:28:11;;;;;;;6.45;5.78;;;12.90;99.90;;;;;;6258474;22;20163;-84
2021/10/29 11:30:41;;;;;;;6.25;5.43;;;13.10;99.90;;;;;;6285736;22;20517;-85
2021/10/29 11:33:07;;;;;;;8.65;5.60;;;13.70;99.90;;;;;;6285411;22;20175;-79
2021/10/29 11:35:33;;;;;;;7.45;4.93;;;13.20;99.90;;;;;;6285223;22;20178;-79
2021/10/29 11:37:59;;;;;;;6.50;4.90;;;13.20;99.90;;;;;;6285316;22;20144;-79
2021/10/29 11:40:25;;;;;;;5.38;4.97;;;13.30;99.90;;;;;;6285533;22;20447;-79
2021/10/29 11:42:55;;;;;;;6.55;5.70;;;13.30;99.90;;;;;;6285163;22;20158;-79
2021/10/29 11:45:32;;;;;;;7.47;5.07;;;13.40;99.90;;;;;;6285249;22;20151;-80
2021/10/29 11:47:58;;;;;;;5.82;5.25;;;13.10;99.90;;;;;;6258039;22;20154;-82
2021/10/29 11:50:24;;;;;;;5.32;4.82;;;13.50;99.90;;;;;;6285000;22;20590;-83
2021/10/29 11:52:50;;;;;;;9.35;5.63;;;14.50;99.90;;;;;;6285173;22;20181;-82
2021/10/29 11:58:33;;;;;;;7.25;4.25;;;13.70;99.90;;;;;;6289192;22;20132;-83
2021/10/29 12:01:07;;;;;;;9.85;4.80;;;13.60;99.90;;;;;;6275532;22;20150;-82
2021/10/29 12:09:25;;;;;;;10.35;4.97;;;14.00;99.90;;;;;;6187809;22;20163;-81
2021/10/29 12:12:25;;;;;;;4.78;4.38;;;14.10;99.90;;;;;;6279078;22;20135;-81
2021/10/29 12:14:50;;;;;;;5.78;5.00;;;14.20;99.90;;;;;;6278372;22;22102;-78
2021/10/29 12:17:24;;;;;;;5.97;4.43;;;14.30;99.90;;;;;;6279279;22;20164;-78
2021/10/29 12:19:55;;;;;;;6.93;5.95;;;14.30;99.90;;;;;;6279668;22;20140;-79
2021/10/29 12:24:56;;;;;;;4.88;4.50;;;14.30;99.90;;;;;;6278099;22;20154;-74
2021/10/29 12:27:34;;;;;;;4.70;4.30;;;14.50;99.90;;;;;;6278039;22;20132;-75
2021/10/29 12:30:22;;;;;;;5.40;4.90;;;14.30;99.90;;;;;;6278063;22;20182;-76
2021/10/29 13:03:40;;;;;;;5.35;4.75;;;14.40;99.90;;;;;;6277822;22;20186;-88
2021/10/29 13:06:06;;;;;;;4.93;4.53;;;14.40;99.90;;;;;;6251200;22;20159;-92
2021/10/29 13:08:36;;;;;;;4.72;4.38;;;14.30;99.90;;;;;;6251098;22;20159;-90
2021/10/29 13:11:02;;;;;;;9.30;4.32;;;14.30;99.90;;;;;;6252512;22;20151;-91
2021/10/29 13:13:39;;;;;;;4.68;4.28;;;14.30;99.90;;;;;;6251687;22;20152;-91
2021/10/29 13:16:11;;;;;;;4.22;3.90;;;14.50;99.90;;;;;;6251396;22;20205;-89
2021/10/29 13:28:56;;;;;;;4.53;4.18;;;14.50;99.90;;;;;;6288013;22;20133;-79
2021/10/29 13:34:47;;;;;;;4.15;3.85;;;14.50;99.90;;;;;;6276759;22;20185;-79
2021/10/29 13:37:17;;;;;;;3.92;3.72;;;14.70;99.90;;;;;;6277028;22;20144;-79
2021/10/29 13:50:57;;;;;;;8.60;3.85;;;15.30;99.90;;;;;;6278122;22;20636;-75
2021/10/29 13:53:38;;;;;;;4.35;4.05;;;15.50;99.90;;;;;;6277261;22;20131;-75
2021/10/29 14:04:07;;;;;;;4.93;4.53;;;16.40;99.90;;;;;;6287810;22;20135;-75
2021/10/29 14:31:04;;;;;;;4.40;4.10;;;16.80;99.90;;;;;;6277001;22;20148;-76
2021/10/29 14:33:34;;;;;;;5.97;4.50;;;16.70;99.90;;;;;;6276774;22;20128;-76
2021/10/29 14:36:01;;;;;;;7.95;4.95;;;16.70;99.90;;;;;;6276826;22;20170;-76
2021/10/29 14:38:40;;;;;;;4.35;3.92;;;16.80;99.90;;;;;;6276817;22;20452;-76
2021/10/29 14:41:59;;;;;;;4.00;3.70;;;16.70;99.90;;;;;;6276915;22;20154;-76
2021/10/29 14:44:01;;;;;;;6.80;3.90;;;16.80;99.90;;;;;;6253137;22;20230;-76
2021/10/29 14:49:21;;;;;;;5.95;3.83;;;16.90;99.90;;;;;;6287046;22;20542;-76
2021/10/29 14:52:25;;;;;;;5.93;3.55;;;16.90;99.90;;;;;;6276813;22;20451;-76
2021/10/29 15:00:44;;;;;;;4.45;4.15;;;16.80;99.90;;;;;;6261329;22;20196;-76
2021/10/29 15:17:18;;;;;;;4.05;3.75;;;16.50;99.90;;;;;;6276722;22;20136;-76
2021/10/29 15:30:22;;;;;;;3.90;3.60;;;15.90;99.90;;;;;;6287168;22;20131;-76
2021/10/29 15:48:58;;;;;;;3.42;3.22;;;14.60;99.90;;;;;;6288629;22;20128;-76
2021/10/29 15:51:24;;;;;;;4.30;3.80;;;14.50;99.90;;;;;;6278328;22;20168;-76
2021/10/29 15:53:51;;;;;;;4.82;4.53;;;14.30;99.90;;;;;;6278372;22;20215;-76
2021/10/29 15:56:28;;;;;;;4.50;3.47;;;14.10;99.90;;;;;;6278101;22;20253;-76
2021/10/29 15:59:08;;;;;;;6.05;4.28;;;14.00;99.90;;;;;;6278293;22;20435;-76
